sensor_id;sensor_type;location;lat;lon;timestamp;P1;durP1;ratioP1;P2;durP2;ratioP2
20391;SDS011;10355;53.688;10.078;2023-02-08T00:02:36;21.67;;;11.50;;
20391;SDS011;10355;53.688;10.078;2023-02-08T00:05:19;20.33;;;11.30;;
20391;SDS011;10355;53.688;10.078;2023-02-08T00:08:01;20.98;;;11.60;;
20391;SDS011;10355;53.688;10.078;2023-02-08T00:10:44;20.67;;;11.10;;
20391;SDS011;10355;53.688;10.078;2023-02-08T00:13:27;17.50;;;10.73;;
20391;SDS011;10355;53.688;10.078;2023-02-08T00:16:11;18.35;;;10.98;;
20391;SDS011;10355;53.688;10.078;2023-02-08T00:18:54;18.98;;;10.43;;
20391;SDS011;10355;53.688;10.078;2023-02-08T00:21:37;17.92;;;10.25;;
20391;SDS011;10355;53.688;10.078;2023-02-08T00:24:20;18.67;;;11.10;;
20391;SDS011;10355;53.688;10.078;2023-02-08T00:27:02;18.42;;;10.85;;
20391;SDS011;10355;53.688;10.078;2023-02-08T00:29:45;20.98;;;11.23;;
20391;SDS011;10355;53.688;10.078;2023-02-08T00:32:29;17.60;;;10.35;;
20391;SDS011;10355;53.688;10.078;2023-02-08T00:35:12;17.23;;;10.55;;
20391;SDS011;10355;53.688;10.078;2023-02-08T00:37:55;18.50;;;11.10;;
20391;SDS011;10355;53.688;10.078;2023-02-08T00:40:37;19.85;;;10.52;;
20391;SDS011;10355;53.688;10.078;2023-02-08T00:43:21;20.70;;;9.95;;
20391;SDS011;10355;53.688;10.078;2023-02-08T00:46:03;18.02;;;9.82;;
20391;SDS011;10355;53.688;10.078;2023-02-08T00:48:49;16.98;;;10.02;;
20391;SDS011;10355;53.688;10.078;2023-02-08T00:51:32;17.20;;;9.85;;
20391;SDS011;10355;53.688;10.078;2023-02-08T00:54:15;19.27;;;10.70;;
20391;SDS011;10355;53.688;10.078;2023-02-08T00:56:58;17.75;;;10.30;;
20391;SDS011;10355;53.688;10.078;2023-02-08T00:59:41;19.15;;;10.75;;
20391;SDS011;10355;53.688;10.078;2023-02-08T01:02:24;20.00;;;11.20;;
20391;SDS011;10355;53.688;10.078;2023-02-08T01:05:08;19.48;;;11.07;;
20391;SDS011;10355;53.688;10.078;2023-02-08T01:07:53;21.20;;;11.20;;
20391;SDS011;10355;53.688;10.078;2023-02-08T01:10:36;20.27;;;10.45;;
20391;SDS011;10355;53.688;10.078;2023-02-08T01:13:19;18.42;;;10.57;;
20391;SDS011;10355;53.688;10.078;2023-02-08T01:16:07;17.88;;;10.73;;
20391;SDS011;10355;53.688;10.078;2023-02-08T01:18:51;21.33;;;10.48;;
20391;SDS011;10355;53.688;10.078;2023-02-08T01:21:36;20.25;;;10.15;;
20391;SDS011;10355;53.688;10.078;2023-02-08T01:24:19;17.92;;;9.80;;
20391;SDS011;10355;53.688;10.078;2023-02-08T01:27:03;17.25;;;9.20;;
20391;SDS011;10355;53.688;10.078;2023-02-08T01:29:46;16.60;;;9.80;;
20391;SDS011;10355;53.688;10.078;2023-02-08T01:32:29;17.65;;;9.95;;
20391;SDS011;10355;53.688;10.078;2023-02-08T01:35:11;17.30;;;9.93;;
20391;SDS011;10355;53.688;10.078;2023-02-08T01:37:55;21.10;;;10.70;;
20391;SDS011;10355;53.688;10.078;2023-02-08T01:40:38;22.92;;;10.65;;
20391;SDS011;10355;53.688;10.078;2023-02-08T01:43:24;19.30;;;10.70;;
20391;SDS011;10355;53.688;10.078;2023-02-08T01:46:07;18.25;;;9.80;;
20391;SDS011;10355;53.688;10.078;2023-02-08T01:48:50;18.15;;;9.35;;
20391;SDS011;10355;53.688;10.078;2023-02-08T01:51:36;18.88;;;9.85;;
20391;SDS011;10355;53.688;10.078;2023-02-08T01:54:21;18.70;;;10.07;;
20391;SDS011;10355;53.688;10.078;2023-02-08T01:57:05;18.33;;;10.02;;
20391;SDS011;10355;53.688;10.078;2023-02-08T01:59:50;19.27;;;9.98;;
20391;SDS011;10355;53.688;10.078;2023-02-08T02:02:33;17.40;;;10.02;;
20391;SDS011;10355;53.688;10.078;2023-02-08T02:05:17;16.75;;;9.40;;
20391;SDS011;10355;53.688;10.078;2023-02-08T02:08:00;19.25;;;10.02;;
20391;SDS011;10355;53.688;10.078;2023-02-08T02:10:44;15.57;;;9.40;;
20391;SDS011;10355;53.688;10.078;2023-02-08T02:13:28;18.27;;;10.00;;
20391;SDS011;10355;53.688;10.078;2023-02-08T02:16:12;18.27;;;9.30;;
20391;SDS011;10355;53.688;10.078;2023-02-08T02:18:55;15.52;;;9.35;;
20391;SDS011;10355;53.688;10.078;2023-02-08T02:21:53;16.50;;;9.38;;
20391;SDS011;10355;53.688;10.078;2023-02-08T02:27:59;17.00;;;8.90;;
20391;SDS011;10355;53.688;10.078;2023-02-08T02:30:55;16.77;;;9.00;;
20391;SDS011;10355;53.688;10.078;2023-02-08T02:33:47;16.10;;;8.93;;
20391;SDS011;10355;53.688;10.078;2023-02-08T02:36:34;17.50;;;9.15;;
20391;SDS011;10355;53.688;10.078;2023-02-08T02:39:20;17.35;;;9.18;;
20391;SDS011;10355;53.688;10.078;2023-02-08T02:42:06;15.52;;;9.00;;
20391;SDS011;10355;53.688;10.078;2023-02-08T02:45:09;17.08;;;10.13;;
20391;SDS011;10355;53.688;10.078;2023-02-08T02:47:57;18.42;;;9.40;;
20391;SDS011;10355;53.688;10.078;2023-02-08T02:50:43;19.02;;;9.55;;
20391;SDS011;10355;53.688;10.078;2023-02-08T02:53:28;18.45;;;9.77;;
20391;SDS011;10355;53.688;10.078;2023-02-08T02:56:14;18.00;;;9.65;;
20391;SDS011;10355;53.688;10.078;2023-02-08T02:59:00;17.60;;;9.50;;
20391;SDS011;10355;53.688;10.078;2023-02-08T03:01:44;16.52;;;9.20;;
20391;SDS011;10355;53.688;10.078;2023-02-08T03:04:48;16.15;;;9.27;;
20391;SDS011;10355;53.688;10.078;2023-02-08T03:07:44;17.23;;;9.90;;
20391;SDS011;10355;53.688;10.078;2023-02-08T03:10:43;15.85;;;9.32;;
20391;SDS011;10355;53.688;10.078;2023-02-08T03:13:31;19.67;;;9.85;;
20391;SDS011;10355;53.688;10.078;2023-02-08T03:16:23;15.43;;;9.80;;
20391;SDS011;10355;53.688;10.078;2023-02-08T03:19:08;17.30;;;9.60;;
20391;SDS011;10355;53.688;10.078;2023-02-08T03:21:55;18.48;;;10.15;;
20391;SDS011;10355;53.688;10.078;2023-02-08T03:24:41;18.65;;;9.30;;
20391;SDS011;10355;53.688;10.078;2023-02-08T03:27:29;17.52;;;9.43;;
20391;SDS011;10355;53.688;10.078;2023-02-08T03:30:14;17.35;;;10.02;;
20391;SDS011;10355;53.688;10.078;2023-02-08T03:32:58;18.38;;;9.63;;
20391;SDS011;10355;53.688;10.078;2023-02-08T03:35:43;19.20;;;9.88;;
20391;SDS011;10355;53.688;10.078;2023-02-08T03:38:30;15.65;;;9.07;;
20391;SDS011;10355;53.688;10.078;2023-02-08T03:41:15;20.10;;;9.60;;
20391;SDS011;10355;53.688;10.078;2023-02-08T03:43:59;20.02;;;10.50;;
20391;SDS011;10355;53.688;10.078;2023-02-08T03:46:45;16.58;;;9.75;;
20391;SDS011;10355;53.688;10.078;2023-02-08T03:49:29;17.83;;;9.90;;
20391;SDS011;10355;53.688;10.078;2023-02-08T03:52:12;18.17;;;9.13;;
20391;SDS011;10355;53.688;10.078;2023-02-08T03:54:57;16.27;;;9.43;;
20391;SDS011;10355;53.688;10.078;2023-02-08T03:57:45;15.52;;;9.32;;
20391;SDS011;10355;53.688;10.078;2023-02-08T04:00:29;16.52;;;9.00;;
20391;SDS011;10355;53.688;10.078;2023-02-08T04:03:14;17.20;;;9.32;;
20391;SDS011;10355;53.688;10.078;2023-02-08T04:05:58;15.80;;;9.30;;
20391;SDS011;10355;53.688;10.078;2023-02-08T04:08:41;18.85;;;9.95;;
20391;SDS011;10355;53.688;10.078;2023-02-08T04:11:24;18.10;;;9.68;;
20391;SDS011;10355;53.688;10.078;2023-02-08T04:14:08;19.75;;;10.05;;
20391;SDS011;10355;53.688;10.078;2023-02-08T04:16:50;17.75;;;9.75;;
20391;SDS011;10355;53.688;10.078;2023-02-08T04:19:33;17.08;;;9.02;;
20391;SDS011;10355;53.688;10.078;2023-02-08T04:22:15;16.80;;;9.63;;
20391;SDS011;10355;53.688;10.078;2023-02-08T04:24:58;17.73;;;9.43;;
20391;SDS011;10355;53.688;10.078;2023-02-08T04:27:41;17.40;;;10.15;;
20391;SDS011;10355;53.688;10.078;2023-02-08T04:30:25;19.85;;;9.93;;
20391;SDS011;10355;53.688;10.078;2023-02-08T04:33:08;17.85;;;10.05;;
20391;SDS011;10355;53.688;10.078;2023-02-08T04:35:53;16.95;;;9.65;;
20391;SDS011;10355;53.688;10.078;2023-02-08T04:38:36;20.55;;;10.70;;
20391;SDS011;10355;53.688;10.078;2023-02-08T04:41:18;18.73;;;9.95;;
20391;SDS011;10355;53.688;10.078;2023-02-08T04:44:01;18.00;;;9.68;;
20391;SDS011;10355;53.688;10.078;2023-02-08T04:46:45;18.20;;;9.55;;
20391;SDS011;10355;53.688;10.078;2023-02-08T04:49:28;17.15;;;9.52;;
20391;SDS011;10355;53.688;10.078;2023-02-08T04:52:11;16.77;;;9.90;;
20391;SDS011;10355;53.688;10.078;2023-02-08T04:54:53;19.90;;;10.05;;
20391;SDS011;10355;53.688;10.078;2023-02-08T04:57:36;21.52;;;10.38;;
20391;SDS011;10355;53.688;10.078;2023-02-08T05:00:19;21.17;;;10.75;;
20391;SDS011;10355;53.688;10.078;2023-02-08T05:03:03;18.30;;;10.02;;
20391;SDS011;10355;53.688;10.078;2023-02-08T05:05:46;18.38;;;10.40;;
20391;SDS011;10355;53.688;10.078;2023-02-08T05:08:28;17.92;;;9.95;;
20391;SDS011;10355;53.688;10.078;2023-02-08T05:11:11;19.08;;;10.50;;
20391;SDS011;10355;53.688;10.078;2023-02-08T05:13:55;19.63;;;10.30;;
20391;SDS011;10355;53.688;10.078;2023-02-08T05:16:38;17.88;;;9.55;;
20391;SDS011;10355;53.688;10.078;2023-02-08T05:19:22;19.45;;;10.38;;
20391;SDS011;10355;53.688;10.078;2023-02-08T05:22:05;21.13;;;10.38;;
20391;SDS011;10355;53.688;10.078;2023-02-08T05:24:47;22.83;;;10.90;;
20391;SDS011;10355;53.688;10.078;2023-02-08T05:27:30;21.23;;;10.70;;
20391;SDS011;10355;53.688;10.078;2023-02-08T05:30:13;23.33;;;10.75;;
20391;SDS011;10355;53.688;10.078;2023-02-08T05:32:56;25.08;;;10.95;;
20391;SDS011;10355;53.688;10.078;2023-02-08T05:35:40;23.10;;;11.07;;
20391;SDS011;10355;53.688;10.078;2023-02-08T05:38:23;26.55;;;12.23;;
20391;SDS011;10355;53.688;10.078;2023-02-08T05:41:05;22.92;;;11.82;;
20391;SDS011;10355;53.688;10.078;2023-02-08T05:43:48;20.42;;;10.90;;
20391;SDS011;10355;53.688;10.078;2023-02-08T05:46:31;23.45;;;11.45;;
20391;SDS011;10355;53.688;10.078;2023-02-08T05:49:13;24.42;;;11.73;;
20391;SDS011;10355;53.688;10.078;2023-02-08T05:51:58;22.65;;;11.48;;
20391;SDS011;10355;53.688;10.078;2023-02-08T05:54:40;21.27;;;10.90;;
20391;SDS011;10355;53.688;10.078;2023-02-08T05:57:23;22.58;;;11.43;;
20391;SDS011;10355;53.688;10.078;2023-02-08T06:00:06;22.23;;;11.68;;
20391;SDS011;10355;53.688;10.078;2023-02-08T06:02:56;23.60;;;11.77;;
20391;SDS011;10355;53.688;10.078;2023-02-08T06:05:39;22.33;;;11.65;;
20391;SDS011;10355;53.688;10.078;2023-02-08T06:08:23;21.33;;;11.52;;
20391;SDS011;10355;53.688;10.078;2023-02-08T06:11:06;26.10;;;12.27;;
20391;SDS011;10355;53.688;10.078;2023-02-08T06:13:49;25.75;;;12.57;;
20391;SDS011;10355;53.688;10.078;2023-02-08T06:16:31;23.63;;;11.65;;
20391;SDS011;10355;53.688;10.078;2023-02-08T06:19:14;24.38;;;12.32;;
20391;SDS011;10355;53.688;10.078;2023-02-08T06:21:57;24.70;;;12.65;;
20391;SDS011;10355;53.688;10.078;2023-02-08T06:24:41;26.10;;;12.57;;
20391;SDS011;10355;53.688;10.078;2023-02-08T06:27:24;22.80;;;11.82;;
20391;SDS011;10355;53.688;10.078;2023-02-08T06:30:07;24.60;;;12.32;;
20391;SDS011;10355;53.688;10.078;2023-02-08T06:32:50;23.02;;;11.50;;
20391;SDS011;10355;53.688;10.078;2023-02-08T06:35:32;23.27;;;11.80;;
20391;SDS011;10355;53.688;10.078;2023-02-08T06:38:15;23.35;;;12.10;;
20391;SDS011;10355;53.688;10.078;2023-02-08T06:40:59;23.55;;;11.75;;
20391;SDS011;10355;53.688;10.078;2023-02-08T06:43:42;24.48;;;12.43;;
20391;SDS011;10355;53.688;10.078;2023-02-08T06:46:25;22.10;;;11.35;;
20391;SDS011;10355;53.688;10.078;2023-02-08T06:49:07;24.13;;;11.60;;
20391;SDS011;10355;53.688;10.078;2023-02-08T06:51:50;24.55;;;12.35;;
20391;SDS011;10355;53.688;10.078;2023-02-08T06:54:33;25.15;;;11.90;;
20391;SDS011;10355;53.688;10.078;2023-02-08T06:57:17;26.75;;;13.00;;
20391;SDS011;10355;53.688;10.078;2023-02-08T07:00:00;23.83;;;12.32;;
20391;SDS011;10355;53.688;10.078;2023-02-08T07:02:42;26.27;;;12.27;;
20391;SDS011;10355;53.688;10.078;2023-02-08T07:05:27;25.52;;;12.73;;
20391;SDS011;10355;53.688;10.078;2023-02-08T07:08:10;29.27;;;12.10;;
20391;SDS011;10355;53.688;10.078;2023-02-08T07:10:53;22.95;;;12.15;;
20391;SDS011;10355;53.688;10.078;2023-02-08T07:13:37;26.25;;;12.70;;
20391;SDS011;10355;53.688;10.078;2023-02-08T07:16:20;25.88;;;12.57;;
20391;SDS011;10355;53.688;10.078;2023-02-08T07:19:03;24.60;;;12.43;;
20391;SDS011;10355;53.688;10.078;2023-02-08T07:21:45;26.52;;;12.68;;
20391;SDS011;10355;53.688;10.078;2023-02-08T07:24:28;27.42;;;13.98;;
20391;SDS011;10355;53.688;10.078;2023-02-08T07:27:12;26.20;;;13.05;;
20391;SDS011;10355;53.688;10.078;2023-02-08T07:29:56;24.45;;;12.10;;
20391;SDS011;10355;53.688;10.078;2023-02-08T07:32:38;26.58;;;12.85;;
20391;SDS011;10355;53.688;10.078;2023-02-08T07:35:21;26.15;;;13.05;;
20391;SDS011;10355;53.688;10.078;2023-02-08T07:38:04;28.20;;;13.52;;
20391;SDS011;10355;53.688;10.078;2023-02-08T07:40:46;27.10;;;13.32;;
20391;SDS011;10355;53.688;10.078;2023-02-08T07:43:29;32.33;;;14.35;;
20391;SDS011;10355;53.688;10.078;2023-02-08T07:46:16;33.53;;;15.32;;
20391;SDS011;10355;53.688;10.078;2023-02-08T07:48:58;29.75;;;14.07;;
20391;SDS011;10355;53.688;10.078;2023-02-08T07:51:41;28.17;;;14.35;;
20391;SDS011;10355;53.688;10.078;2023-02-08T07:54:24;29.55;;;14.13;;
20391;SDS011;10355;53.688;10.078;2023-02-08T07:57:07;28.80;;;14.25;;
20391;SDS011;10355;53.688;10.078;2023-02-08T07:59:49;29.35;;;13.65;;
20391;SDS011;10355;53.688;10.078;2023-02-08T08:02:36;28.67;;;14.30;;
20391;SDS011;10355;53.688;10.078;2023-02-08T08:05:18;32.47;;;14.35;;
20391;SDS011;10355;53.688;10.078;2023-02-08T08:08:03;32.80;;;14.50;;
20391;SDS011;10355;53.688;10.078;2023-02-08T08:10:45;32.08;;;14.57;;
20391;SDS011;10355;53.688;10.078;2023-02-08T08:13:29;31.42;;;14.38;;
20391;SDS011;10355;53.688;10.078;2023-02-08T08:16:12;27.88;;;13.95;;
20391;SDS011;10355;53.688;10.078;2023-02-08T08:18:59;35.15;;;15.73;;
20391;SDS011;10355;53.688;10.078;2023-02-08T08:21:43;33.72;;;15.65;;
20391;SDS011;10355;53.688;10.078;2023-02-08T08:24:25;30.13;;;14.45;;
20391;SDS011;10355;53.688;10.078;2023-02-08T08:27:08;32.15;;;15.52;;
20391;SDS011;10355;53.688;10.078;2023-02-08T08:29:51;32.05;;;14.93;;
20391;SDS011;10355;53.688;10.078;2023-02-08T08:32:34;29.15;;;14.45;;
20391;SDS011;10355;53.688;10.078;2023-02-08T08:35:18;34.95;;;14.95;;
20391;SDS011;10355;53.688;10.078;2023-02-08T08:38:01;29.90;;;14.15;;
20391;SDS011;10355;53.688;10.078;2023-02-08T08:40:43;35.20;;;16.17;;
20391;SDS011;10355;53.688;10.078;2023-02-08T08:43:26;35.30;;;15.38;;
20391;SDS011;10355;53.688;10.078;2023-02-08T08:46:09;33.17;;;15.25;;
20391;SDS011;10355;53.688;10.078;2023-02-08T08:48:52;36.30;;;16.67;;
20391;SDS011;10355;53.688;10.078;2023-02-08T08:51:36;31.95;;;15.40;;
20391;SDS011;10355;53.688;10.078;2023-02-08T08:54:19;32.00;;;15.18;;
20391;SDS011;10355;53.688;10.078;2023-02-08T08:57:02;33.78;;;15.15;;
20391;SDS011;10355;53.688;10.078;2023-02-08T08:59:45;38.42;;;16.05;;
20391;SDS011;10355;53.688;10.078;2023-02-08T09:02:28;35.75;;;16.80;;
20391;SDS011;10355;53.688;10.078;2023-02-08T09:05:10;31.42;;;15.18;;
20391;SDS011;10355;53.688;10.078;2023-02-08T09:07:54;32.40;;;15.23;;
20391;SDS011;10355;53.688;10.078;2023-02-08T09:10:37;33.97;;;15.48;;
20391;SDS011;10355;53.688;10.078;2023-02-08T09:13:20;35.45;;;15.90;;
20391;SDS011;10355;53.688;10.078;2023-02-08T09:16:03;33.67;;;16.10;;
20391;SDS011;10355;53.688;10.078;2023-02-08T09:18:46;36.08;;;16.27;;
20391;SDS011;10355;53.688;10.078;2023-02-08T09:21:29;31.00;;;14.98;;
20391;SDS011;10355;53.688;10.078;2023-02-08T09:24:13;33.75;;;15.23;;
20391;SDS011;10355;53.688;10.078;2023-02-08T09:26:57;29.73;;;14.45;;
20391;SDS011;10355;53.688;10.078;2023-02-08T09:29:39;31.38;;;14.65;;
20391;SDS011;10355;53.688;10.078;2023-02-08T09:32:22;33.15;;;15.10;;
20391;SDS011;10355;53.688;10.078;2023-02-08T09:35:05;35.42;;;14.90;;
20391;SDS011;10355;53.688;10.078;2023-02-08T09:37:48;32.97;;;15.32;;
20391;SDS011;10355;53.688;10.078;2023-02-08T09:40:37;35.50;;;15.00;;
20391;SDS011;10355;53.688;10.078;2023-02-08T09:43:27;33.15;;;15.32;;
20391;SDS011;10355;53.688;10.078;2023-02-08T09:46:14;32.03;;;14.27;;
20391;SDS011;10355;53.688;10.078;2023-02-08T09:48:59;29.92;;;14.15;;
20391;SDS011;10355;53.688;10.078;2023-02-08T09:51:43;27.92;;;13.43;;
20391;SDS011;10355;53.688;10.078;2023-02-08T09:54:29;31.92;;;14.02;;
20391;SDS011;10355;53.688;10.078;2023-02-08T09:57:15;27.60;;;13.25;;
20391;SDS011;10355;53.688;10.078;2023-02-08T10:00:01;30.33;;;13.80;;
20391;SDS011;10355;53.688;10.078;2023-02-08T10:02:45;27.63;;;13.40;;
20391;SDS011;10355;53.688;10.078;2023-02-08T10:05:29;25.48;;;13.25;;
20391;SDS011;10355;53.688;10.078;2023-02-08T10:08:12;29.00;;;13.15;;
20391;SDS011;10355;53.688;10.078;2023-02-08T10:10:58;28.67;;;13.52;;
20391;SDS011;10355;53.688;10.078;2023-02-08T10:14:02;28.23;;;13.35;;
20391;SDS011;10355;53.688;10.078;2023-02-08T10:16:51;28.90;;;12.30;;
20391;SDS011;10355;53.688;10.078;2023-02-08T10:19:39;27.67;;;12.57;;
20391;SDS011;10355;53.688;10.078;2023-02-08T10:22:26;22.95;;;11.50;;
20391;SDS011;10355;53.688;10.078;2023-02-08T10:25:18;26.33;;;12.50;;
20391;SDS011;10355;53.688;10.078;2023-02-08T10:28:10;25.63;;;12.50;;
20391;SDS011;10355;53.688;10.078;2023-02-08T10:30:56;23.70;;;11.75;;
20391;SDS011;10355;53.688;10.078;2023-02-08T10:33:44;27.88;;;12.15;;
20391;SDS011;10355;53.688;10.078;2023-02-08T10:36:30;26.92;;;12.60;;
20391;SDS011;10355;53.688;10.078;2023-02-08T10:39:15;28.13;;;12.68;;
20391;SDS011;10355;53.688;10.078;2023-02-08T10:41:58;22.63;;;11.77;;
20391;SDS011;10355;53.688;10.078;2023-02-08T10:44:46;27.75;;;12.40;;
20391;SDS011;10355;53.688;10.078;2023-02-08T10:47:41;31.95;;;12.23;;
20391;SDS011;10355;53.688;10.078;2023-02-08T10:50:28;25.80;;;12.20;;
20391;SDS011;10355;53.688;10.078;2023-02-08T10:53:12;29.73;;;13.38;;
20391;SDS011;10355;53.688;10.078;2023-02-08T10:55:57;27.65;;;12.85;;
20391;SDS011;10355;53.688;10.078;2023-02-08T10:58:39;27.77;;;11.90;;
20391;SDS011;10355;53.688;10.078;2023-02-08T11:01:22;25.63;;;11.23;;
20391;SDS011;10355;53.688;10.078;2023-02-08T11:04:07;25.15;;;11.73;;
20391;SDS011;10355;53.688;10.078;2023-02-08T11:06:51;23.73;;;11.68;;
20391;SDS011;10355;53.688;10.078;2023-02-08T11:09:35;26.40;;;11.00;;
20391;SDS011;10355;53.688;10.078;2023-02-08T11:12:18;23.85;;;11.25;;
20391;SDS011;10355;53.688;10.078;2023-02-08T11:15:01;22.75;;;10.98;;
20391;SDS011;10355;53.688;10.078;2023-02-08T11:17:44;25.52;;;11.57;;
20391;SDS011;10355;53.688;10.078;2023-02-08T11:20:30;25.02;;;11.52;;
20391;SDS011;10355;53.688;10.078;2023-02-08T11:23:20;25.75;;;11.77;;
20391;SDS011;10355;53.688;10.078;2023-02-08T11:26:16;27.65;;;12.48;;
20391;SDS011;10355;53.688;10.078;2023-02-08T11:29:00;29.15;;;12.20;;
20391;SDS011;10355;53.688;10.078;2023-02-08T11:31:57;27.25;;;12.88;;
20391;SDS011;10355;53.688;10.078;2023-02-08T11:34:40;25.30;;;11.65;;
20391;SDS011;10355;53.688;10.078;2023-02-08T11:37:24;28.10;;;12.30;;
20391;SDS011;10355;53.688;10.078;2023-02-08T11:40:14;21.42;;;10.63;;
20391;SDS011;10355;53.688;10.078;2023-02-08T11:42:59;27.35;;;12.13;;
20391;SDS011;10355;53.688;10.078;2023-02-08T11:45:42;26.23;;;11.85;;
20391;SDS011;10355;53.688;10.078;2023-02-08T11:48:30;25.95;;;10.98;;
20391;SDS011;10355;53.688;10.078;2023-02-08T11:51:22;26.92;;;11.73;;
20391;SDS011;10355;53.688;10.078;2023-02-08T11:54:09;25.38;;;10.77;;
20391;SDS011;10355;53.688;10.078;2023-02-08T11:57:11;24.42;;;10.52;;
20391;SDS011;10355;53.688;10.078;2023-02-08T12:00:11;24.15;;;10.70;;
20391;SDS011;10355;53.688;10.078;2023-02-08T12:02:54;23.05;;;10.55;;
20391;SDS011;10355;53.688;10.078;2023-02-08T12:05:41;23.58;;;10.65;;
20391;SDS011;10355;53.688;10.078;2023-02-08T12:08:26;24.20;;;10.95;;
20391;SDS011;10355;53.688;10.078;2023-02-08T12:11:15;25.17;;;10.60;;
20391;SDS011;10355;53.688;10.078;2023-02-08T12:14:04;24.27;;;11.02;;
20391;SDS011;10355;53.688;10.078;2023-02-08T12:17:00;21.67;;;10.27;;
20391;SDS011;10355;53.688;10.078;2023-02-08T12:22:50;23.67;;;10.25;;
20391;SDS011;10355;53.688;10.078;2023-02-08T12:25:36;23.35;;;10.43;;
20391;SDS011;10355;53.688;10.078;2023-02-08T12:28:27;22.10;;;10.10;;
20391;SDS011;10355;53.688;10.078;2023-02-08T12:31:15;26.15;;;9.77;;
20391;SDS011;10355;53.688;10.078;2023-02-08T12:34:00;22.05;;;9.95;;
20391;SDS011;10355;53.688;10.078;2023-02-08T12:36:55;24.85;;;10.60;;
20391;SDS011;10355;53.688;10.078;2023-02-08T12:40:01;24.02;;;10.23;;
20391;SDS011;10355;53.688;10.078;2023-02-08T12:43:09;25.40;;;9.98;;
20391;SDS011;10355;53.688;10.078;2023-02-08T12:46:00;19.85;;;9.57;;
20391;SDS011;10355;53.688;10.078;2023-02-08T12:51:47;24.02;;;10.43;;
20391;SDS011;10355;53.688;10.078;2023-02-08T12:54:33;24.05;;;10.38;;
20391;SDS011;10355;53.688;10.078;2023-02-08T12:57:19;23.02;;;10.15;;
20391;SDS011;10355;53.688;10.078;2023-02-08T13:00:04;22.10;;;9.50;;
20391;SDS011;10355;53.688;10.078;2023-02-08T13:02:50;22.38;;;10.32;;
20391;SDS011;10355;53.688;10.078;2023-02-08T13:05:38;22.98;;;9.82;;
20391;SDS011;10355;53.688;10.078;2023-02-08T13:08:31;23.52;;;10.38;;
20391;SDS011;10355;53.688;10.078;2023-02-08T13:11:17;22.25;;;10.07;;
20391;SDS011;10355;53.688;10.078;2023-02-08T13:14:02;20.98;;;9.82;;
20391;SDS011;10355;53.688;10.078;2023-02-08T13:16:49;20.92;;;10.10;;
20391;SDS011;10355;53.688;10.078;2023-02-08T13:19:35;19.70;;;9.07;;
20391;SDS011;10355;53.688;10.078;2023-02-08T13:22:40;17.13;;;8.57;;
20391;SDS011;10355;53.688;10.078;2023-02-08T13:25:25;19.50;;;9.38;;
20391;SDS011;10355;53.688;10.078;2023-02-08T13:28:14;16.48;;;8.30;;
20391;SDS011;10355;53.688;10.078;2023-02-08T13:31:00;17.27;;;8.38;;
20391;SDS011;10355;53.688;10.078;2023-02-08T13:33:44;21.40;;;8.63;;
20391;SDS011;10355;53.688;10.078;2023-02-08T13:36:48;19.02;;;8.35;;
20391;SDS011;10355;53.688;10.078;2023-02-08T13:39:33;17.25;;;8.13;;
20391;SDS011;10355;53.688;10.078;2023-02-08T13:42:20;20.88;;;8.13;;
20391;SDS011;10355;53.688;10.078;2023-02-08T13:45:05;16.13;;;7.70;;
20391;SDS011;10355;53.688;10.078;2023-02-08T13:47:49;18.30;;;7.85;;
20391;SDS011;10355;53.688;10.078;2023-02-08T13:50:42;16.88;;;7.53;;
20391;SDS011;10355;53.688;10.078;2023-02-08T13:56:37;17.95;;;7.43;;
20391;SDS011;10355;53.688;10.078;2023-02-08T13:59:32;13.05;;;6.68;;
20391;SDS011;10355;53.688;10.078;2023-02-08T14:02:23;15.20;;;6.95;;
20391;SDS011;10355;53.688;10.078;2023-02-08T14:08:05;13.88;;;6.85;;
20391;SDS011;10355;53.688;10.078;2023-02-08T14:10:49;14.95;;;6.95;;
20391;SDS011;10355;53.688;10.078;2023-02-08T14:13:35;14.18;;;6.57;;
20391;SDS011;10355;53.688;10.078;2023-02-08T14:16:21;14.43;;;6.25;;
20391;SDS011;10355;53.688;10.078;2023-02-08T14:19:05;13.82;;;6.63;;
20391;SDS011;10355;53.688;10.078;2023-02-08T14:22:03;14.55;;;6.15;;
20391;SDS011;10355;53.688;10.078;2023-02-08T14:24:46;15.10;;;6.57;;
20391;SDS011;10355;53.688;10.078;2023-02-08T14:27:32;13.00;;;6.50;;
20391;SDS011;10355;53.688;10.078;2023-02-08T14:30:20;14.63;;;6.32;;
20391;SDS011;10355;53.688;10.078;2023-02-08T14:33:08;14.55;;;6.40;;
20391;SDS011;10355;53.688;10.078;2023-02-08T14:35:54;14.88;;;6.30;;
20391;SDS011;10355;53.688;10.078;2023-02-08T14:41:46;13.98;;;6.30;;
20391;SDS011;10355;53.688;10.078;2023-02-08T14:47:51;11.23;;;5.88;;
20391;SDS011;10355;53.688;10.078;2023-02-08T14:50:35;13.88;;;5.63;;
20391;SDS011;10355;53.688;10.078;2023-02-08T14:53:26;12.95;;;6.03;;
20391;SDS011;10355;53.688;10.078;2023-02-08T14:56:14;15.48;;;6.15;;
20391;SDS011;10355;53.688;10.078;2023-02-08T14:58:59;15.05;;;6.13;;
20391;SDS011;10355;53.688;10.078;2023-02-08T15:01:44;16.25;;;6.22;;
20391;SDS011;10355;53.688;10.078;2023-02-08T15:04:28;15.38;;;6.38;;
20391;SDS011;10355;53.688;10.078;2023-02-08T15:07:14;18.20;;;6.10;;
20391;SDS011;10355;53.688;10.078;2023-02-08T15:10:00;15.20;;;6.47;;
20391;SDS011;10355;53.688;10.078;2023-02-08T15:12:44;10.40;;;5.63;;
20391;SDS011;10355;53.688;10.078;2023-02-08T15:15:28;15.10;;;6.00;;
20391;SDS011;10355;53.688;10.078;2023-02-08T15:18:14;13.55;;;6.05;;
20391;SDS011;10355;53.688;10.078;2023-02-08T15:21:02;12.23;;;5.80;;
20391;SDS011;10355;53.688;10.078;2023-02-08T15:23:56;15.43;;;6.13;;
20391;SDS011;10355;53.688;10.078;2023-02-08T15:26:42;13.55;;;5.70;;
20391;SDS011;10355;53.688;10.078;2023-02-08T15:29:26;11.88;;;5.50;;
20391;SDS011;10355;53.688;10.078;2023-02-08T15:32:24;11.35;;;5.72;;
20391;SDS011;10355;53.688;10.078;2023-02-08T15:35:11;13.07;;;6.22;;
20391;SDS011;10355;53.688;10.078;2023-02-08T15:37:57;14.93;;;6.57;;
20391;SDS011;10355;53.688;10.078;2023-02-08T15:40:40;14.82;;;6.80;;
20391;SDS011;10355;53.688;10.078;2023-02-08T15:43:23;13.63;;;7.00;;
20391;SDS011;10355;53.688;10.078;2023-02-08T15:46:15;17.67;;;8.02;;
20391;SDS011;10355;53.688;10.078;2023-02-08T15:48:59;17.80;;;8.15;;
20391;SDS011;10355;53.688;10.078;2023-02-08T15:51:42;15.43;;;8.13;;
20391;SDS011;10355;53.688;10.078;2023-02-08T15:54:27;17.25;;;8.18;;
20391;SDS011;10355;53.688;10.078;2023-02-08T15:57:15;18.02;;;8.13;;
20391;SDS011;10355;53.688;10.078;2023-02-08T16:00:00;18.38;;;8.45;;
20391;SDS011;10355;53.688;10.078;2023-02-08T16:02:49;16.55;;;8.13;;
20391;SDS011;10355;53.688;10.078;2023-02-08T16:05:32;17.88;;;8.38;;
20391;SDS011;10355;53.688;10.078;2023-02-08T16:08:18;18.50;;;8.65;;
20391;SDS011;10355;53.688;10.078;2023-02-08T16:11:05;16.15;;;8.48;;
20391;SDS011;10355;53.688;10.078;2023-02-08T16:13:50;18.80;;;8.45;;
20391;SDS011;10355;53.688;10.078;2023-02-08T16:16:37;22.02;;;8.90;;
20391;SDS011;10355;53.688;10.078;2023-02-08T16:19:21;14.38;;;8.00;;
20391;SDS011;10355;53.688;10.078;2023-02-08T16:22:14;17.92;;;8.93;;